Terminal Aerodrome Forecast
Issued by NWS Duluth, MN

Home | Current Version | Previous Version | Text Only | Print | Product List | Glossary On
Versions: 1 2 3 4 5 6 7 8 9 10 11 12 13 14 15 16 17 18 19 20 21 22
496
FTUS43 KDLH 062339
TAFDLH
TAF
KDLH 062339Z 0700/0724 31015G26KT P6SM VCSH FEW040 BKN250
     FM070300 32012G22KT P6SM BKN120
     FM070500 32010KT P6SM SKC
     FM071500 30015G25KT P6SM SKC=

USA.gov is the U.S. government's official web portal to all federal, state and local government web resources and services.